Time;durP1;ratioP1;P1;durP2;ratioP2;P2;SDS_P1;SDS_P2;PMS_P1;PMS_P2;Temp;Humidity;BMP_temperature;BMP_pressure;BME280_temperature;BME280_humidity;BME280_pressure;Samples;Min_cycle;Max_cycle;Signal;HPM_P1;HPM_P2
2023/05/05 00:01:14;;;;;;;11.68;5.50;;;12.00;99.90;;;;;;4998036;28;20043;-85
2023/05/05 00:03:41;;;;;;;14.68;5.40;;;12.70;99.90;;;;;;4982297;28;20035;-84
2023/05/05 00:06:07;;;;;;;10.38;5.00;;;12.00;99.90;;;;;;4978676;28;20085;-85
2023/05/05 00:08:33;;;;;;;13.35;5.47;;;12.00;99.90;;;;;;4995250;28;20082;-84
2023/05/05 00:10:58;;;;;;;11.77;5.00;;;12.60;99.90;;;;;;4977798;28;20137;-84
2023/05/05 00:13:24;;;;;;;11.25;5.65;;;12.10;99.90;;;;;;4995283;28;20054;-84
2023/05/05 00:15:51;;;;;;;15.30;5.50;;;12.00;99.90;;;;;;4995787;28;20053;-84
2023/05/05 00:18:17;;;;;;;12.75;5.57;;;12.00;99.90;;;;;;4994291;28;20058;-84
2023/05/05 00:20:46;;;;;;;10.88;5.68;;;12.00;99.90;;;;;;4994249;28;20534;-84
2023/05/05 00:23:12;;;;;;;13.23;5.65;;;12.00;99.90;;;;;;5065546;23;20162;-84
2023/05/05 00:25:38;;;;;;;12.68;5.70;;;12.00;99.90;;;;;;4977104;28;20470;-84
2023/05/05 00:28:04;;;;;;;12.07;5.53;;;11.90;99.90;;;;;;4995360;28;20046;-84
2023/05/05 00:30:29;;;;;;;13.55;6.00;;;11.90;99.90;;;;;;4995069;28;20050;-84
2023/05/05 00:32:56;;;;;;;11.60;5.57;;;12.50;99.90;;;;;;4976972;28;20120;-84
2023/05/05 00:35:22;;;;;;;13.00;5.63;;;11.90;99.90;;;;;;4995126;28;20121;-83
2023/05/05 00:37:48;;;;;;;13.05;5.30;;;11.90;99.90;;;;;;4978049;28;20038;-84
2023/05/05 00:40:14;;;;;;;15.32;5.97;;;12.00;99.90;;;;;;4976466;28;20474;-84
2023/05/05 00:42:46;;;;;;;10.57;5.55;;;12.00;99.90;;;;;;4977256;28;20145;-84
2023/05/05 00:45:16;;;;;;;11.43;5.03;;;12.80;99.90;;;;;;4976432;28;20858;-84
2023/05/05 00:47:46;;;;;;;14.05;5.82;;;12.00;99.90;;;;;;5002486;23;20050;-84
2023/05/05 00:50:23;;;;;;;11.35;5.82;;;12.00;99.90;;;;;;4993076;28;20505;-84
2023/05/05 00:52:51;;;;;;;13.10;5.85;;;12.00;99.90;;;;;;4992575;28;20050;-84
2023/05/05 00:55:18;;;;;;;12.25;5.93;;;12.00;99.90;;;;;;4996541;28;20449;-84
2023/05/05 00:57:44;;;;;;;13.02;6.03;;;12.00;99.90;;;;;;5004265;23;20465;-85
2023/05/05 01:00:10;;;;;;;15.15;5.55;;;12.00;99.90;;;;;;4993687;28;20043;-84
2023/05/05 01:02:38;;;;;;;13.77;6.07;;;12.00;99.90;;;;;;4993268;28;20046;-84
2023/05/05 01:05:05;;;;;;;11.05;5.40;;;12.10;99.90;;;;;;4993562;28;20092;-84
2023/05/05 01:08:06;;;;;;;13.18;5.22;;;12.00;99.90;;;;;;4992417;28;20082;-84
2023/05/05 01:11:23;;;;;;;12.32;5.88;;;11.90;99.90;;;;;;4995608;23;20065;-84
2023/05/05 01:14:54;;;;;;;12.05;5.78;;;12.00;99.90;;;;;;4973761;28;20380;-85
2023/05/05 01:17:59;;;;;;;12.70;6.00;;;11.30;99.90;;;;;;4956811;28;20088;-84
2023/05/05 01:20:48;;;;;;;13.07;5.80;;;11.90;99.90;;;;;;4956386;28;20376;-84
2023/05/05 01:24:03;;;;;;;12.25;5.78;;;11.80;99.90;;;;;;4960728;28;20043;-84
2023/05/05 01:27:12;;;;;;;14.23;5.82;;;11.20;99.90;;;;;;4958114;28;20043;-84
2023/05/05 01:30:09;;;;;;;13.40;5.70;;;11.80;99.90;;;;;;4959447;28;20051;-85
2023/05/05 01:32:58;;;;;;;14.73;5.97;;;11.40;99.90;;;;;;4959912;28;20047;-84
2023/05/05 01:36:08;;;;;;;11.93;5.47;;;11.80;99.90;;;;;;4957119;28;20050;-84
2023/05/05 01:38:59;;;;;;;11.00;5.38;;;11.80;99.90;;;;;;4974805;28;20049;-84
2023/05/05 01:42:13;;;;;;;12.30;5.50;;;11.80;99.90;;;;;;4957682;28;20046;-84
2023/05/05 01:48:02;;;;;;;11.80;5.57;;;13.10;99.90;;;;;;4896065;29;20084;-84
2023/05/05 01:50:41;;;;;;;13.45;5.32;;;11.50;99.90;;;;;;4895782;29;20048;-84
2023/05/05 01:53:16;;;;;;;12.38;5.40;;;11.90;99.90;;;;;;4880272;29;20055;-84
2023/05/05 01:55:42;;;;;;;13.88;5.40;;;12.10;99.90;;;;;;4879782;29;20052;-84
2023/05/05 01:58:09;;;;;;;12.13;5.97;;;12.00;99.90;;;;;;4902736;29;20067;-84
2023/05/05 02:00:36;;;;;;;12.15;5.95;;;11.80;99.90;;;;;;4893104;28;21163;-85
2023/05/05 02:03:03;;;;;;;12.88;5.88;;;12.50;99.90;;;;;;5093971;23;20056;-84
2023/05/05 02:05:31;;;;;;;11.68;5.55;;;11.70;99.90;;;;;;5023786;28;20125;-83
2023/05/05 02:07:58;;;;;;;12.75;5.45;;;11.70;99.90;;;;;;5002994;28;20496;-84
2023/05/05 02:10:26;;;;;;;11.25;5.95;;;12.70;99.90;;;;;;4995251;28;20121;-84
2023/05/05 02:12:52;;;;;;;10.60;5.22;;;11.70;99.90;;;;;;4995745;28;20053;-84
2023/05/05 02:15:26;;;;;;;11.88;5.20;;;11.70;99.90;;;;;;5012738;28;20030;-84
2023/05/05 02:17:53;;;;;;;11.48;5.50;;;11.70;99.90;;;;;;4994926;28;20050;-84
2023/05/05 02:20:19;;;;;;;10.48;5.00;;;11.70;99.90;;;;;;4994888;28;20075;-84
2023/05/05 02:22:45;;;;;;;11.52;5.40;;;11.70;99.90;;;;;;5013169;28;20096;-84
2023/05/05 02:25:11;;;;;;;11.63;6.00;;;12.40;99.90;;;;;;4994380;28;20046;-84
2023/05/05 02:27:41;;;;;;;12.88;5.30;;;11.70;99.90;;;;;;4994976;28;20073;-84
2023/05/05 02:30:09;;;;;;;12.70;5.40;;;12.50;99.90;;;;;;4995093;28;20049;-84
2023/05/05 02:32:58;;;;;;;16.95;6.10;;;11.60;99.90;;;;;;4994519;28;20504;-84
2023/05/05 02:35:31;;;;;;;12.63;5.07;;;11.60;99.90;;;;;;5011900;28;20137;-84
2023/05/05 02:38:01;;;;;;;14.13;5.53;;;11.60;99.90;;;;;;5011845;28;20052;-84
2023/05/05 02:40:30;;;;;;;13.10;5.75;;;12.50;99.90;;;;;;4994983;28;20168;-84
2023/05/05 02:42:59;;;;;;;13.05;5.88;;;11.50;99.90;;;;;;4996539;28;20038;-84
2023/05/05 02:45:27;;;;;;;12.50;5.95;;;11.50;99.90;;;;;;4998084;28;20042;-84
2023/05/05 02:47:52;;;;;;;12.82;5.50;;;11.40;99.90;;;;;;4999099;28;20543;-84
2023/05/05 02:50:19;;;;;;;12.15;5.97;;;11.60;99.90;;;;;;4998795;28;20141;-84
2023/05/05 02:52:45;;;;;;;11.57;5.35;;;11.40;99.90;;;;;;5007678;28;20038;-84
2023/05/05 02:55:12;;;;;;;11.80;5.30;;;11.90;99.90;;;;;;5017626;28;20450;-84
2023/05/05 02:57:45;;;;;;;14.88;6.15;;;11.30;99.90;;;;;;5017109;28;20425;-84
2023/05/05 03:00:38;;;;;;;10.90;5.70;;;11.30;99.90;;;;;;5008081;28;20421;-84
2023/05/05 03:03:17;;;;;;;11.13;5.80;;;11.30;99.90;;;;;;5073145;23;20066;-85
2023/05/05 03:06:06;;;;;;;13.32;5.68;;;11.30;99.90;;;;;;4978822;28;20058;-84
2023/05/05 03:09:12;;;;;;;14.93;5.97;;;11.30;99.90;;;;;;4985285;23;20065;-85
2023/05/05 03:11:48;;;;;;;16.70;6.38;;;11.30;99.90;;;;;;4996416;28;20117;-84
2023/05/05 03:14:21;;;;;;;11.45;5.78;;;12.20;99.90;;;;;;4995490;28;20174;-84
2023/05/05 03:16:48;;;;;;;12.43;5.85;;;11.30;99.90;;;;;;4996548;28;20042;-84
2023/05/05 03:19:48;;;;;;;11.95;5.70;;;11.30;99.90;;;;;;4978468;28;20054;-84
2023/05/05 03:22:16;;;;;;;16.05;6.50;;;11.00;99.90;;;;;;4995891;28;20065;-84
2023/05/05 03:24:51;;;;;;;11.50;5.93;;;11.70;99.90;;;;;;4979140;28;20046;-84
2023/05/05 03:27:53;;;;;;;11.93;5.93;;;12.10;99.90;;;;;;4995063;28;20089;-84
2023/05/05 03:30:22;;;;;;;12.55;6.30;;;10.60;99.90;;;;;;4978164;28;20057;-84
2023/05/05 03:32:47;;;;;;;13.70;6.88;;;12.30;99.90;;;;;;4996155;28;20046;-84
2023/05/05 03:35:13;;;;;;;12.25;6.57;;;12.00;99.90;;;;;;5018631;23;20386;-84
2023/05/05 03:37:39;;;;;;;11.27;6.20;;;11.10;99.90;;;;;;4978726;28;20050;-84
2023/05/05 03:40:08;;;;;;;13.13;6.30;;;11.90;99.90;;;;;;4977755;28;20112;-84
2023/05/05 03:42:34;;;;;;;13.68;6.22;;;10.80;99.90;;;;;;4977219;28;20488;-84
2023/05/05 03:44:59;;;;;;;11.88;6.13;;;11.10;99.90;;;;;;4995927;28;20074;-84
2023/05/05 03:47:25;;;;;;;12.43;6.35;;;10.80;99.90;;;;;;4978387;28;20916;-84
2023/05/05 03:49:51;;;;;;;11.10;6.13;;;11.80;99.90;;;;;;4977473;28;20046;-84
2023/05/05 03:52:17;;;;;;;17.77;6.20;;;11.80;99.90;;;;;;4977859;28;20043;-84
2023/05/05 03:54:44;;;;;;;11.27;6.25;;;10.80;99.90;;;;;;4978412;28;20093;-84
2023/05/05 03:57:10;;;;;;;11.43;5.85;;;11.90;99.90;;;;;;4977682;28;20046;-84
2023/05/05 03:59:36;;;;;;;13.40;5.80;;;11.10;99.90;;;;;;4995796;28;20050;-84
2023/05/05 04:02:01;;;;;;;13.05;6.28;;;10.80;99.90;;;;;;4977116;28;20043;-84
2023/05/05 04:04:29;;;;;;;11.55;6.05;;;10.90;99.90;;;;;;4976949;28;20046;-84
2023/05/05 04:06:54;;;;;;;12.48;5.75;;;11.50;99.90;;;;;;4995219;28;20054;-84
2023/05/05 04:09:20;;;;;;;12.55;5.88;;;10.90;99.90;;;;;;4994216;28;20042;-84
2023/05/05 04:11:46;;;;;;;10.35;5.57;;;11.00;99.90;;;;;;4977951;28;20507;-84
2023/05/05 04:14:11;;;;;;;14.68;5.95;;;11.00;99.90;;;;;;4977736;28;20137;-84
2023/05/05 04:16:37;;;;;;;13.35;6.03;;;11.00;99.90;;;;;;4994972;28;20050;-84
2023/05/05 04:19:03;;;;;;;13.93;6.32;;;11.00;99.90;;;;;;4978963;28;20097;-85
2023/05/05 04:21:28;;;;;;;11.65;6.57;;;11.50;99.90;;;;;;4989582;28;20110;-84
2023/05/05 04:23:57;;;;;;;12.82;6.30;;;11.00;99.90;;;;;;4985331;28;20050;-85
2023/05/05 04:26:22;;;;;;;13.80;6.38;;;11.00;99.90;;;;;;4978328;28;20048;-84
2023/05/05 04:28:48;;;;;;;13.93;6.88;;;11.90;99.90;;;;;;5002847;28;20077;-85
2023/05/05 04:31:14;;;;;;;13.48;6.82;;;10.90;99.90;;;;;;4977758;28;20042;-84
2023/05/05 04:33:39;;;;;;;13.95;6.55;;;10.80;99.90;;;;;;4995387;28;20121;-84
2023/05/05 04:36:05;;;;;;;14.23;6.90;;;10.80;99.90;;;;;;4977229;28;20058;-84
2023/05/05 04:38:31;;;;;;;16.85;7.15;;;10.80;99.90;;;;;;4976664;28;20050;-84
2023/05/05 04:40:57;;;;;;;14.73;7.22;;;10.80;99.90;;;;;;4977775;28;20489;-84
2023/05/05 04:43:23;;;;;;;13.27;6.97;;;10.60;99.90;;;;;;4994154;28;20184;-84
2023/05/05 04:45:54;;;;;;;15.95;7.70;;;11.40;99.90;;;;;;4977189;28;20501;-84
2023/05/05 04:48:20;;;;;;;14.02;7.93;;;10.70;99.90;;;;;;4976843;28;20058;-84
2023/05/05 04:53:46;;;;;;;14.18;7.07;;;10.60;99.90;;;;;;989383;26;21055;-84
2023/05/05 04:56:31;;;;;;;15.48;7.57;;;10.70;99.90;;;;;;4994443;28;20042;-84
2023/05/05 04:59:00;;;;;;;14.48;7.55;;;10.60;99.90;;;;;;4994442;28;20394;-84
2023/05/05 05:01:25;;;;;;;16.23;8.05;;;11.70;99.90;;;;;;4994617;28;20050;-85
2023/05/05 05:03:54;;;;;;;14.88;7.43;;;12.00;99.90;;;;;;4999598;28;20092;-85
2023/05/05 05:06:20;;;;;;;13.90;7.53;;;10.60;99.90;;;;;;5011634;28;20125;-84
2023/05/05 05:08:55;;;;;;;13.20;7.95;;;11.20;99.90;;;;;;5012675;28;20129;-84
2023/05/05 05:11:30;;;;;;;15.02;7.93;;;10.70;99.90;;;;;;5012296;28;20042;-84
2023/05/05 05:14:14;;;;;;;16.10;8.38;;;11.50;99.90;;;;;;5011437;28;20041;-84
2023/05/05 05:16:40;;;;;;;16.00;8.07;;;11.60;99.90;;;;;;5014090;28;20034;-84
2023/05/05 05:19:05;;;;;;;17.02;8.63;;;11.60;99.90;;;;;;5012094;28;20041;-84
2023/05/05 05:21:31;;;;;;;16.23;8.57;;;11.70;99.90;;;;;;5012019;28;20046;-84
2023/05/05 05:23:56;;;;;;;17.25;8.30;;;10.80;99.90;;;;;;5012601;28;20045;-84
2023/05/05 05:26:22;;;;;;;17.38;8.25;;;10.60;99.90;;;;;;5011312;28;20049;-84
2023/05/05 05:28:47;;;;;;;15.77;7.45;;;11.00;99.90;;;;;;5013253;28;20528;-85
2023/05/05 05:31:13;;;;;;;15.68;7.97;;;11.50;99.90;;;;;;5013540;28;20045;-85
2023/05/05 05:33:39;;;;;;;15.05;7.68;;;10.60;99.90;;;;;;5010839;28;20060;-84
2023/05/05 05:36:05;;;;;;;13.48;7.70;;;11.40;99.90;;;;;;5012142;28;20092;-85
2023/05/05 05:38:34;;;;;;;14.98;7.88;;;10.20;99.90;;;;;;4993914;28;20056;-84
2023/05/05 05:41:04;;;;;;;19.20;8.05;;;10.70;99.90;;;;;;4992024;28;20549;-84
2023/05/05 05:43:45;;;;;;;12.80;7.35;;;11.80;99.90;;;;;;4992319;28;20050;-85
2023/05/05 05:46:11;;;;;;;14.27;7.85;;;12.20;99.90;;;;;;4992274;28;20053;-85
2023/05/05 05:48:37;;;;;;;14.73;7.50;;;10.80;99.90;;;;;;4996714;28;20065;-84
2023/05/05 05:51:02;;;;;;;16.15;8.30;;;11.90;99.90;;;;;;4998374;28;20054;-84
2023/05/05 05:53:53;;;;;;;15.52;8.02;;;10.90;99.90;;;;;;4993786;28;20105;-84
2023/05/05 05:56:34;;;;;;;14.27;7.80;;;11.00;99.90;;;;;;5000498;28;20461;-85
2023/05/05 05:59:52;;;;;;;14.45;7.93;;;11.70;99.90;;;;;;5000568;28;20042;-85
2023/05/05 06:02:19;;;;;;;15.77;8.18;;;11.20;99.90;;;;;;4993009;28;20192;-85
2023/05/05 06:04:46;;;;;;;13.63;7.38;;;12.60;99.90;;;;;;4992265;28;20445;-85
2023/05/05 06:07:23;;;;;;;15.98;7.82;;;12.70;99.90;;;;;;4993276;28;20124;-81
2023/05/05 06:09:49;;;;;;;14.02;7.75;;;10.80;99.90;;;;;;4992489;28;20414;-80
2023/05/05 06:12:33;;;;;;;13.50;7.50;;;11.50;99.90;;;;;;4991674;28;20046;-82
2023/05/05 06:14:58;;;;;;;14.57;7.88;;;12.50;99.90;;;;;;4992635;28;20054;-83
2023/05/05 06:17:36;;;;;;;16.05;8.18;;;11.20;99.90;;;;;;4992552;28;20096;-82
2023/05/05 06:20:08;;;;;;;13.10;7.35;;;11.80;99.90;;;;;;4992184;28;20118;-81
2023/05/05 06:22:34;;;;;;;14.73;7.78;;;11.90;99.90;;;;;;4991389;28;20050;-81
2023/05/05 06:25:00;;;;;;;13.75;7.90;;;12.20;99.90;;;;;;4993292;28;20166;-81
2023/05/05 06:27:25;;;;;;;14.50;7.43;;;12.00;99.90;;;;;;4992648;28;20054;-81
2023/05/05 06:29:51;;;;;;;14.43;7.72;;;11.90;99.90;;;;;;4991303;28;20046;-81
2023/05/05 06:32:16;;;;;;;15.07;8.40;;;12.00;99.90;;;;;;4993065;28;20043;-84
2023/05/05 06:34:55;;;;;;;15.55;7.97;;;11.90;99.90;;;;;;4991944;28;20104;-84
2023/05/05 06:37:24;;;;;;;15.20;8.43;;;12.60;99.90;;;;;;4991224;28;20486;-81
2023/05/05 06:40:06;;;;;;;17.23;8.35;;;13.30;99.90;;;;;;4992221;28;20054;-81
2023/05/05 06:42:32;;;;;;;16.00;8.35;;;13.10;99.90;;;;;;4988719;28;20402;-81
2023/05/05 06:45:17;;;;;;;15.73;8.48;;;12.90;99.90;;;;;;4990053;28;20493;-81
2023/05/05 06:47:58;;;;;;;14.13;8.15;;;12.20;99.90;;;;;;4990427;28;20054;-81
2023/05/05 06:50:23;;;;;;;15.27;8.80;;;12.50;99.90;;;;;;4991934;28;20453;-81
2023/05/05 06:53:01;;;;;;;14.77;8.40;;;12.90;99.90;;;;;;4991115;28;20046;-81
2023/05/05 06:55:27;;;;;;;16.35;8.73;;;13.70;99.90;;;;;;4990271;28;20081;-81
2023/05/05 06:57:53;;;;;;;13.77;8.65;;;13.60;99.90;;;;;;4991477;28;20074;-81
2023/05/05 07:00:22;;;;;;;16.52;8.73;;;12.80;99.90;;;;;;4992736;28;20100;-82
2023/05/05 07:02:50;;;;;;;16.80;8.52;;;13.00;99.90;;;;;;4992019;28;20046;-81
2023/05/05 07:05:35;;;;;;;14.80;8.30;;;13.00;99.90;;;;;;4992269;28;20073;-81
2023/05/05 07:08:01;;;;;;;15.20;8.73;;;14.20;99.90;;;;;;4991977;28;20039;-81
2023/05/05 07:10:46;;;;;;;15.13;8.90;;;14.00;99.90;;;;;;4991510;28;20449;-81
2023/05/05 07:13:23;;;;;;;15.13;8.70;;;13.20;99.90;;;;;;4991292;28;20505;-82
2023/05/05 07:15:49;;;;;;;14.75;9.18;;;13.30;99.90;;;;;;4993155;28;20054;-81
2023/05/05 07:18:15;;;;;;;12.98;8.50;;;14.20;99.90;;;;;;4992531;28;20042;-81
2023/05/05 07:20:44;;;;;;;16.08;8.52;;;14.70;99.90;;;;;;4991803;28;20049;-81
2023/05/05 07:23:33;;;;;;;15.63;8.65;;;13.50;99.90;;;;;;4992969;28;20043;-81
2023/05/05 07:25:59;;;;;;;15.23;9.80;;;13.70;99.90;;;;;;4993954;28;20441;-81
2023/05/05 07:28:33;;;;;;;15.50;8.98;;;15.00;99.90;;;;;;4989284;28;20042;-81
2023/05/05 07:31:02;;;;;;;15.00;9.35;;;15.10;99.90;;;;;;4994280;28;20046;-81
2023/05/05 07:33:30;;;;;;;15.85;9.25;;;14.00;99.90;;;;;;4993260;28;20042;-81
2023/05/05 07:36:05;;;;;;;18.50;9.70;;;15.00;99.90;;;;;;4996071;28;20050;-81
2023/05/05 07:38:34;;;;;;;16.10;9.38;;;14.20;99.90;;;;;;4994374;28;20042;-83
2023/05/05 07:41:06;;;;;;;17.20;9.57;;;14.30;99.90;;;;;;4993315;28;20042;-82
2023/05/05 07:43:31;;;;;;;17.48;9.40;;;15.30;99.90;;;;;;4993903;28;20038;-82
2023/05/05 07:53:08;;;;;;;15.88;9.80;;;14.70;99.90;;;;;;4947725;28;20086;-84
2023/05/05 07:55:33;;;;;;;16.08;9.63;;;14.90;99.90;;;;;;4992329;28;20136;-83
2023/05/05 07:58:33;;;;;;;17.60;9.98;;;15.10;99.90;;;;;;4992706;28;20506;-83
2023/05/05 08:08:42;;;;;;;14.60;10.30;;;15.30;99.90;;;;;;4978391;28;20054;-83
2023/05/05 08:11:08;;;;;;;15.88;9.90;;;15.20;99.90;;;;;;4977409;28;20050;-81
2023/05/05 08:13:34;;;;;;;16.60;10.18;;;15.80;99.90;;;;;;4979556;23;20054;-81
2023/05/05 08:16:25;;;;;;;18.90;10.65;;;16.00;99.90;;;;;;4938852;29;20046;-84
2023/05/05 08:19:09;;;;;;;19.17;10.55;;;16.10;99.90;;;;;;4878538;29;20153;-82
2023/05/05 08:21:45;;;;;;;;;;;;;;;;;;;;;
2023/05/05 08:24:26;;;;;;;16.38;9.90;;;16.30;99.90;;;;;;4937610;29;20374;-81
2023/05/05 08:30:03;;;;;;;18.63;10.30;;;17.40;99.90;;;;;;4925201;29;20510;-81
2023/05/05 08:32:43;;;;;;;17.30;11.20;;;16.70;99.90;;;;;;4956105;29;20130;-80
2023/05/05 08:38:47;;;;;;;16.20;10.80;;;17.80;99.90;;;;;;4910346;29;20047;-80
2023/05/05 08:41:16;;;;;;;15.70;10.55;;;17.40;99.90;;;;;;4954895;28;20054;-82
2023/05/05 08:44:04;;;;;;;17.40;11.07;;;18.00;99.90;;;;;;4982323;23;20050;-81
2023/05/05 08:46:35;;;;;;;15.93;10.50;;;17.60;99.90;;;;;;4976235;28;20054;-82
2023/05/05 08:49:06;;;;;;;17.30;11.13;;;17.60;99.90;;;;;;4985162;28;20074;-81
2023/05/05 08:51:55;;;;;;;15.00;10.13;;;18.30;99.90;;;;;;4975852;28;20466;-81
2023/05/05 08:55:04;;;;;;;15.43;10.18;;;17.80;99.90;;;;;;4975254;28;20085;-81
2023/05/05 08:57:53;;;;;;;15.43;10.45;;;18.40;99.90;;;;;;4978219;28;20458;-81
2023/05/05 09:00:32;;;;;;;16.40;11.13;;;18.70;99.90;;;;;;4973694;28;20042;-83
2023/05/05 09:03:13;;;;;;;15.30;11.07;;;18.30;99.90;;;;;;4974084;28;20050;-81
2023/05/05 09:05:40;;;;;;;17.48;10.95;;;18.50;99.90;;;;;;4973227;28;20054;-82
2023/05/05 09:08:09;;;;;;;17.35;10.82;;;18.50;99.90;;;;;;4975201;28;20039;-83
2023/05/05 09:10:50;;;;;;;18.13;11.80;;;19.00;99.90;;;;;;4973844;28;20054;-82
2023/05/05 09:13:17;;;;;;;16.90;11.02;;;19.60;99.90;;;;;;4972860;28;20051;-83
2023/05/05 09:15:43;;;;;;;16.05;10.30;;;19.10;99.90;;;;;;4989768;28;20050;-83
2023/05/05 09:18:25;;;;;;;17.80;10.68;;;19.20;99.90;;;;;;4974850;28;20410;-82
2023/05/05 09:21:23;;;;;;;15.85;10.07;;;19.30;99.90;;;;;;4973417;28;20510;-83
2023/05/05 09:24:11;;;;;;;15.70;9.93;;;18.80;99.90;;;;;;4973757;28;20068;-84
2023/05/05 09:26:41;;;;;;;16.23;9.77;;;19.00;99.90;;;;;;4973795;28;20047;-84
2023/05/05 09:29:20;;;;;;;15.93;10.18;;;19.50;99.90;;;;;;4974458;28;20521;-82
2023/05/05 09:32:07;;;;;;;16.05;10.00;;;19.60;99.90;;;;;;4973203;28;20047;-84
2023/05/05 09:34:34;;;;;;;15.20;10.45;;;19.70;99.90;;;;;;4953352;29;20047;-82
2023/05/05 09:37:44;;;;;;;16.80;11.05;;;20.00;99.90;;;;;;4954857;29;20043;-79
2023/05/05 09:40:22;;;;;;;17.45;10.63;;;20.10;99.90;;;;;;4937554;29;20051;-83
2023/05/05 09:43:01;;;;;;;18.75;11.30;;;20.10;99.90;;;;;;4938502;28;20130;-82
2023/05/05 09:45:30;;;;;;;17.00;10.95;;;20.40;99.90;;;;;;4936511;28;20121;-82
2023/05/05 09:47:55;;;;;;;15.35;10.80;;;20.50;99.90;;;;;;4936681;29;20443;-81
2023/05/05 09:50:29;;;;;;;16.00;10.85;;;20.80;99.90;;;;;;4951533;29;20047;-81
2023/05/05 09:53:07;;;;;;;16.33;10.55;;;20.90;99.90;;;;;;4936109;29;20089;-82
2023/05/05 09:56:14;;;;;;;15.95;10.88;;;21.10;99.90;;;;;;4935109;29;20134;-82
2023/05/05 09:58:40;;;;;;;16.23;11.70;;;20.60;99.90;;;;;;4962361;28;20059;-82
2023/05/05 10:01:25;;;;;;;15.77;11.18;;;21.10;99.90;;;;;;4970987;28;20051;-82
2023/05/05 10:04:04;;;;;;;16.52;11.55;;;20.90;99.90;;;;;;4972231;28;20074;-81
2023/05/05 10:06:47;;;;;;;17.80;11.48;;;20.60;99.90;;;;;;4973400;28;20039;-82
2023/05/05 10:09:31;;;;;;;17.90;11.23;;;20.80;99.90;;;;;;4970880;28;20051;-82
2023/05/05 10:11:58;;;;;;;;;;;21.10;99.90;;;;;;4972901;28;20515;-82
2023/05/05 10:14:25;;;;;;;17.45;11.43;;;21.10;99.90;;;;;;4985983;28;20425;-82
2023/05/05 10:16:54;;;;;;;16.48;11.90;;;21.10;99.90;;;;;;4973106;28;20406;-82
2023/05/05 10:19:34;;;;;;;19.00;11.88;;;21.00;99.90;;;;;;4977801;28;20043;-82
2023/05/05 10:22:07;;;;;;;18.60;12.27;;;21.30;99.90;;;;;;4973420;28;20446;-82
2023/05/05 10:25:00;;;;;;;18.30;13.10;;;21.00;99.90;;;;;;4973947;28;20058;-82
2023/05/05 10:27:27;;;;;;;18.67;13.32;;;21.00;99.90;;;;;;4975292;28;20042;-82
2023/05/05 10:30:31;;;;;;;20.65;12.70;;;21.20;99.90;;;;;;4971429;28;20154;-84
2023/05/05 10:33:44;;;;;;;17.55;12.13;;;21.30;99.90;;;;;;4975448;28;20045;-85
2023/05/05 10:36:15;;;;;;;18.90;12.32;;;21.50;99.90;;;;;;4906779;28;20528;-85
2023/05/05 10:38:58;;;;;;;17.08;11.85;;;21.30;99.90;;;;;;4973257;28;20104;-83
2023/05/05 10:41:25;;;;;;;16.60;11.27;;;22.10;99.90;;;;;;4973284;28;20100;-84
2023/05/05 10:43:55;;;;;;;18.17;11.80;;;22.20;99.90;;;;;;4983562;28;20089;-84
2023/05/05 10:46:21;;;;;;;17.15;11.18;;;22.20;99.90;;;;;;4992092;28;20505;-83
2023/05/05 10:49:24;;;;;;;15.68;10.93;;;22.40;99.90;;;;;;4991455;28;20085;-83
2023/05/05 10:52:12;;;;;;;16.25;11.77;;;22.50;99.90;;;;;;4991212;28;20054;-83
2023/05/05 10:55:28;;;;;;;16.42;12.00;;;22.70;99.90;;;;;;4993105;28;20061;-85
2023/05/05 10:57:53;;;;;;;16.48;11.10;;;22.50;99.90;;;;;;4992473;28;20046;-85
2023/05/05 11:00:50;;;;;;;14.15;9.30;;;22.80;99.90;;;;;;4993244;28;20445;-76
2023/05/05 11:03:25;;;;;;;15.02;9.70;;;22.80;99.90;;;;;;4976276;28;20078;-83
2023/05/05 11:06:18;;;;;;;13.98;9.60;;;22.70;99.90;;;;;;4976651;28;20038;-84
2023/05/05 11:08:47;;;;;;;17.88;9.90;;;23.10;99.90;;;;;;4985389;28;20050;-83
2023/05/05 11:11:12;;;;;;;14.27;9.52;;;22.50;99.90;;;;;;4995762;28;20046;-86
2023/05/05 11:13:41;;;;;;;15.25;9.90;;;22.70;99.90;;;;;;4996225;28;20053;-84
2023/05/05 11:16:53;;;;;;;14.88;10.13;;;22.80;99.90;;;;;;4992153;28;20479;-83
2023/05/05 11:19:47;;;;;;;15.05;10.30;;;23.00;99.50;;;;;;4983917;28;20058;-84
2023/05/05 11:22:19;;;;;;;15.25;10.32;;;22.90;99.60;;;;;;4996075;28;20049;-84
2023/05/05 11:24:54;;;;;;;11.45;6.28;;;22.80;99.40;;;;;;4995612;28;20046;-83
2023/05/05 11:28:04;;;;;;;11.10;5.60;;;22.50;98.50;;;;;;4994671;28;20100;-84
2023/05/05 11:30:30;;;;;;;11.65;6.22;;;22.20;98.60;;;;;;4979187;28;20078;-83
2023/05/05 11:33:31;;;;;;;10.45;4.80;;;22.30;99.70;;;;;;4974334;28;20077;-83
2023/05/05 11:36:34;;;;;;;10.48;3.15;;;22.00;99.10;;;;;;4982556;28;20043;-83
2023/05/05 11:39:38;;;;;;;7.90;2.50;;;22.30;98.20;;;;;;4975971;28;20105;-83
2023/05/05 11:42:11;;;;;;;;;;;22.10;98.00;;;;;;4975411;28;20043;-82
2023/05/05 11:44:36;;;;;;;7.40;2.83;;;21.90;98.30;;;;;;4980299;28;19922;-83
2023/05/05 11:47:05;;;;;;;9.13;2.90;;;22.40;98.80;;;;;;4977810;28;20082;-82
2023/05/05 11:49:59;;;;;;;8.57;3.00;;;21.70;98.60;;;;;;4979461;28;20261;-83
2023/05/05 11:52:33;;;;;;;9.23;3.55;;;21.60;98.60;;;;;;4976709;28;20058;-84
2023/05/05 11:55:00;;;;;;;10.32;4.05;;;21.50;98.90;;;;;;4977015;28;20047;-83
2023/05/05 11:57:29;;;;;;;11.15;4.47;;;21.40;99.30;;;;;;4980839;28;20483;-83
2023/05/05 12:00:11;;;;;;;9.80;4.50;;;21.30;99.60;;;;;;4977923;28;20137;-85
2023/05/05 12:02:55;;;;;;;11.38;4.60;;;21.10;99.90;;;;;;4977500;28;20038;-83
2023/05/05 12:05:39;;;;;;;10.60;4.28;;;21.00;99.90;;;;;;4994956;28;20061;-85
2023/05/05 12:08:23;;;;;;;10.38;4.40;;;20.90;99.90;;;;;;4974237;28;20050;-83
2023/05/05 12:11:02;;;;;;;10.15;4.40;;;20.80;99.90;;;;;;4978193;28;20430;-84
2023/05/05 12:14:26;;;;;;;9.57;4.18;;;20.70;99.90;;;;;;4962354;28;20409;-83
2023/05/05 12:17:34;;;;;;;10.30;3.88;;;20.60;99.90;;;;;;4974203;28;20407;-83
2023/05/05 12:20:46;;;;;;;9.50;4.10;;;20.40;99.90;;;;;;4977030;28;20085;-83
2023/05/05 12:23:11;;;;;;;10.70;4.50;;;20.30;99.90;;;;;;4974232;28;20532;-83
2023/05/05 12:25:38;;;;;;;13.32;4.72;;;21.00;99.90;;;;;;4987889;28;20133;-84
2023/05/05 12:28:13;;;;;;;10.65;3.97;;;20.30;99.90;;;;;;4974259;28;20058;-83
2023/05/05 12:30:39;;;;;;;8.95;3.85;;;20.30;99.90;;;;;;4999814;28;20047;-83
2023/05/05 12:33:18;;;;;;;9.93;4.00;;;20.20;99.90;;;;;;4990210;28;20050;-83
2023/05/05 12:36:47;;;;;;;9.60;3.92;;;20.10;99.90;;;;;;4981031;28;20043;-85
2023/05/05 12:39:13;;;;;;;9.85;3.92;;;19.90;99.90;;;;;;4980715;28;20402;-84
2023/05/05 12:42:07;;;;;;;11.60;3.95;;;19.80;99.90;;;;;;4981370;28;20093;-86
2023/05/05 12:44:52;;;;;;;9.73;3.97;;;19.30;99.90;;;;;;4980715;28;20117;-83
2023/05/05 12:47:43;;;;;;;9.45;3.60;;;19.60;99.90;;;;;;4973260;28;20054;-84
2023/05/05 12:50:09;;;;;;;8.65;3.28;;;19.60;99.90;;;;;;4970796;28;20042;-82
2023/05/05 12:52:53;;;;;;;9.23;3.30;;;19.30;99.90;;;;;;4974686;28;20054;-82
2023/05/05 12:55:18;;;;;;;8.50;3.00;;;19.30;99.90;;;;;;4972787;28;20070;-82
2023/05/05 12:58:11;;;;;;;8.70;3.03;;;19.30;99.90;;;;;;4961198;28;20113;-82
2023/05/05 13:00:37;;;;;;;9.57;3.10;;;19.40;99.90;;;;;;4974824;28;20047;-82
2023/05/05 13:03:18;;;;;;;8.68;2.53;;;20.00;99.90;;;;;;4973584;28;20054;-82
2023/05/05 13:05:44;;;;;;;7.40;2.50;;;19.70;99.90;;;;;;4972740;28;20051;-82
2023/05/05 13:08:09;;;;;;;8.38;2.83;;;20.20;99.90;;;;;;4974552;28;20054;-82
2023/05/05 13:10:36;;;;;;;8.80;2.80;;;19.70;99.90;;;;;;4966179;28;20043;-82
2023/05/05 13:13:03;;;;;;;8.45;2.92;;;19.70;99.90;;;;;;4969945;28;20093;-81
2023/05/05 13:15:32;;;;;;;8.18;2.80;;;19.70;99.90;;;;;;4975695;28;20094;-82
2023/05/05 13:18:31;;;;;;;8.63;2.40;;;19.00;99.90;;;;;;4964283;28;20083;-82
2023/05/05 13:21:06;;;;;;;8.70;2.50;;;18.40;99.90;;;;;;4956583;28;20063;-82
2023/05/05 13:23:32;;;;;;;5.07;1.77;;;17.80;99.90;;;;;;4975785;28;20491;-81
2023/05/05 13:25:58;;;;;;;7.97;2.13;;;17.00;99.90;;;;;;4963410;28;20053;-81
2023/05/05 13:28:24;;;;;;;4.47;1.30;;;16.60;99.90;;;;;;4970686;28;20050;-82
2023/05/05 13:30:49;;;;;;;2.00;1.10;;;16.60;99.90;;;;;;4972874;28;20043;-82
2023/05/05 13:33:15;;;;;;;4.82;1.33;;;16.10;99.90;;;;;;4972690;28;20031;-81
2023/05/05 13:35:41;;;;;;;1.90;1.10;;;15.80;99.90;;;;;;4974294;28;20049;-82
2023/05/05 13:38:06;;;;;;;5.60;1.40;;;16.30;99.90;;;;;;4972755;28;20093;-82
2023/05/05 13:40:32;;;;;;;2.45;1.20;;;15.60;99.90;;;;;;4973166;28;20047;-82
2023/05/05 13:42:57;;;;;;;3.63;1.30;;;15.60;99.90;;;;;;4973489;28;20043;-83
2023/05/05 13:45:23;;;;;;;1.13;1.02;;;15.40;99.90;;;;;;4972513;28;20047;-83
2023/05/05 13:47:48;;;;;;;6.78;1.40;;;14.70;99.90;;;;;;4973317;28;20042;-82